createdAt,value
2018-03-20T00:00:14.241Z,9.80
2018-03-20T00:02:42.057Z,10.73
2018-03-20T00:05:10.386Z,11.53
2018-03-20T00:07:38.025Z,11.80
2018-03-20T00:10:06.595Z,11.12
2018-03-20T00:12:34.446Z,11.63
2018-03-20T00:15:02.097Z,10.77
2018-03-20T00:17:29.801Z,11.30
2018-03-20T00:19:57.331Z,11.10
2018-03-20T00:22:24.906Z,12.43
2018-03-20T00:24:52.516Z,12.03
2018-03-20T00:27:20.207Z,11.90
2018-03-20T00:29:47.842Z,12.10
2018-03-20T00:32:15.412Z,12.63
2018-03-20T00:34:42.957Z,12.70
2018-03-20T00:37:10.786Z,12.50
2018-03-20T00:39:38.507Z,12.70
2018-03-20T00:42:06.322Z,13.20
2018-03-20T00:44:33.942Z,13.57
2018-03-20T00:47:01.555Z,13.20
2018-03-20T00:49:29.095Z,13.67
2018-03-20T00:51:57.201Z,14.23
2018-03-20T00:54:24.742Z,14.80
2018-03-20T00:56:52.413Z,12.65
2018-03-20T00:59:20.032Z,13.50
2018-03-20T01:01:47.876Z,13.10
2018-03-20T01:04:15.544Z,11.98
2018-03-20T01:06:43.254Z,12.53
2018-03-20T01:09:10.893Z,11.90
2018-03-20T01:11:38.447Z,12.23
2018-03-20T01:14:06.116Z,11.65
2018-03-20T01:16:34.615Z,12.67
2018-03-20T01:19:02.191Z,12.33
2018-03-20T01:21:29.866Z,12.10
2018-03-20T01:23:57.493Z,11.70
2018-03-20T01:26:25.331Z,11.77
2018-03-20T01:28:52.916Z,11.40
2018-03-20T01:31:20.570Z,11.97
2018-03-20T01:33:48.591Z,13.67
2018-03-20T01:36:16.201Z,12.67
2018-03-20T01:38:44.030Z,11.10
2018-03-20T01:41:11.637Z,12.93
2018-03-20T01:43:39.182Z,12.70
2018-03-20T01:46:06.900Z,12.00
2018-03-20T01:48:34.512Z,11.63
2018-03-20T01:51:02.250Z,12.60
2018-03-20T01:53:30.052Z,12.30
2018-03-20T01:55:57.821Z,11.73
2018-03-20T01:58:26.191Z,12.93
2018-03-20T02:00:53.725Z,13.40
2018-03-20T02:03:21.650Z,12.00
2018-03-20T02:05:49.324Z,12.87
2018-03-20T02:08:17.001Z,14.77
2018-03-20T02:10:44.696Z,13.40
2018-03-20T02:13:12.336Z,13.53
2018-03-20T02:15:40.017Z,13.03
2018-03-20T02:18:07.622Z,12.30
2018-03-20T02:20:35.158Z,13.17
2018-03-20T02:23:02.800Z,12.20
2018-03-20T02:25:30.565Z,12.97
2018-03-20T02:27:58.307Z,13.60
2018-03-20T02:30:26.097Z,13.18
2018-03-20T02:32:53.826Z,15.43
2018-03-20T02:35:21.357Z,15.05
2018-03-20T02:37:49.160Z,15.20
2018-03-20T02:40:16.706Z,12.97
2018-03-20T02:42:44.394Z,12.80
2018-03-20T02:45:12.333Z,14.70
2018-03-20T02:47:39.956Z,13.97
2018-03-20T02:50:07.615Z,15.17
2018-03-20T02:52:35.206Z,15.20
2018-03-20T02:55:03.158Z,21.77
2018-03-20T02:57:30.991Z,26.47
2018-03-20T02:59:58.635Z,20.57
2018-03-20T03:02:26.287Z,20.40
2018-03-20T03:04:54.116Z,15.00
2018-03-20T03:07:22.540Z,18.17
2018-03-20T03:09:50.215Z,19.37
2018-03-20T03:12:18.294Z,19.73
2018-03-20T03:14:46.556Z,18.30
2018-03-20T03:17:14.379Z,19.77
2018-03-20T03:19:42.222Z,14.23
2018-03-20T03:22:09.976Z,15.80
2018-03-20T03:24:37.830Z,20.00
2018-03-20T03:27:05.522Z,14.03
2018-03-20T03:29:33.115Z,14.83
2018-03-20T03:32:00.956Z,17.20
2018-03-20T03:34:28.515Z,14.25
2018-03-20T03:36:56.096Z,14.07
2018-03-20T03:39:23.946Z,16.33
2018-03-20T03:41:51.607Z,18.53
2018-03-20T03:44:19.875Z,15.20
2018-03-20T03:46:47.570Z,13.27
2018-03-20T03:49:15.349Z,14.03
2018-03-20T03:51:43.961Z,14.77
2018-03-20T03:54:11.579Z,19.00
2018-03-20T03:56:39.155Z,17.53
2018-03-20T03:59:06.871Z,15.00
2018-03-20T04:01:34.466Z,13.07
2018-03-20T04:04:02.107Z,12.27
2018-03-20T04:06:29.745Z,15.20
2018-03-20T04:08:57.350Z,14.10
2018-03-20T04:11:24.971Z,14.83
2018-03-20T04:13:52.770Z,13.00
2018-03-20T04:16:20.286Z,12.40
2018-03-20T04:18:48.015Z,13.83
2018-03-20T04:21:15.717Z,12.20
2018-03-20T04:23:43.452Z,16.73
2018-03-20T04:26:11.065Z,15.47
2018-03-20T04:28:38.879Z,19.75
2018-03-20T04:31:06.733Z,15.20
2018-03-20T04:33:34.380Z,14.23
2018-03-20T04:36:02.031Z,15.30
2018-03-20T04:38:29.727Z,17.40
2018-03-20T04:40:57.302Z,14.40
2018-03-20T04:43:25.510Z,15.07
2018-03-20T04:45:53.176Z,15.97
2018-03-20T04:48:20.722Z,12.80
2018-03-20T04:50:48.317Z,12.70
2018-03-20T04:53:15.999Z,15.00
2018-03-20T04:55:43.551Z,14.20
2018-03-20T04:58:11.185Z,13.20
2018-03-20T05:00:38.740Z,12.93
2018-03-20T05:03:06.386Z,14.90
2018-03-20T05:05:34.708Z,13.40
2018-03-20T05:08:02.271Z,13.00
2018-03-20T05:10:29.807Z,13.00
2018-03-20T05:12:57.520Z,14.30
2018-03-20T05:15:25.240Z,13.67
2018-03-20T05:17:54.266Z,14.80
2018-03-20T05:20:27.479Z,13.80
2018-03-20T05:23:00.577Z,14.05
2018-03-20T05:25:28.201Z,13.50
2018-03-20T05:27:55.845Z,13.80
2018-03-20T05:30:23.716Z,14.20
2018-03-20T05:32:51.401Z,14.10
2018-03-20T05:35:19.049Z,13.70
2018-03-20T05:37:46.815Z,11.80
2018-03-20T05:40:14.629Z,13.95
2018-03-20T05:42:42.196Z,13.20
2018-03-20T05:45:10.007Z,13.80
2018-03-20T05:47:43.755Z,14.10
2018-03-20T05:50:17.005Z,14.33
2018-03-20T05:52:44.536Z,15.67
2018-03-20T05:55:12.153Z,13.85
2018-03-20T05:57:39.755Z,14.77
2018-03-20T06:00:07.547Z,15.63
2018-03-20T06:02:35.102Z,14.10
2018-03-20T06:05:02.673Z,16.77
2018-03-20T06:07:30.323Z,15.07
2018-03-20T06:09:58.060Z,14.97
2018-03-20T06:12:25.730Z,15.02
2018-03-20T06:14:53.340Z,13.87
2018-03-20T06:17:20.873Z,15.43
2018-03-20T06:19:49.092Z,13.97
2018-03-20T06:22:16.916Z,14.33
2018-03-20T06:24:44.581Z,16.58
2018-03-20T06:27:12.175Z,15.20
2018-03-20T06:29:40.360Z,15.80
2018-03-20T06:32:07.910Z,16.20
2018-03-20T06:34:35.667Z,16.03
2018-03-20T06:37:03.202Z,16.20
2018-03-20T06:39:31.095Z,13.40
2018-03-20T06:41:58.806Z,12.60
2018-03-20T06:44:26.511Z,14.30
2018-03-20T06:46:54.162Z,13.20
2018-03-20T06:49:21.756Z,15.70
2018-03-20T06:51:49.427Z,13.17
2018-03-20T06:54:17.060Z,14.15
2018-03-20T06:56:44.902Z,15.83
2018-03-20T06:59:12.441Z,15.35
2018-03-20T07:01:40.021Z,14.17
2018-03-20T07:04:07.558Z,15.63
2018-03-20T07:06:35.297Z,13.63
2018-03-20T07:09:03.303Z,15.57
2018-03-20T07:11:30.932Z,13.43
2018-03-20T07:13:58.583Z,15.23
2018-03-20T07:16:26.220Z,21.00
2018-03-20T07:18:54.115Z,16.73
2018-03-20T07:21:21.780Z,14.48
2018-03-20T07:23:49.668Z,13.03
2018-03-20T07:26:17.286Z,15.07
2018-03-20T07:28:44.906Z,15.20
2018-03-20T07:31:13.431Z,14.30
2018-03-20T07:33:41.042Z,16.50
2018-03-20T07:36:08.711Z,16.70
2018-03-20T07:38:36.276Z,22.50
2018-03-20T07:41:04.426Z,13.30
2018-03-20T07:43:32.077Z,12.80
2018-03-20T07:45:59.631Z,14.17
2018-03-20T07:48:27.277Z,15.77
2018-03-20T07:50:54.986Z,16.77
2018-03-20T07:53:22.617Z,15.98
2018-03-20T07:55:50.502Z,14.43
2018-03-20T07:58:18.174Z,13.68
2018-03-20T08:00:45.811Z,16.43
2018-03-20T08:03:13.981Z,16.77
2018-03-20T08:05:41.544Z,15.17
2018-03-20T08:08:09.327Z,14.37
2018-03-20T08:10:37.045Z,14.07
2018-03-20T08:13:04.629Z,25.13
2018-03-20T08:15:32.361Z,15.70
2018-03-20T08:18:00.483Z,15.65
2018-03-20T08:20:28.070Z,15.20
2018-03-20T08:22:55.696Z,15.70
2018-03-20T08:25:23.260Z,15.23
2018-03-20T08:27:50.957Z,15.23
2018-03-20T08:30:19.783Z,15.57
2018-03-20T08:32:47.397Z,15.80
2018-03-20T08:35:15.254Z,15.27
2018-03-20T08:37:42.857Z,17.27
2018-03-20T08:40:10.481Z,16.00
2018-03-20T08:42:38.116Z,15.57
2018-03-20T08:45:05.945Z,16.73
2018-03-20T08:47:33.651Z,17.20
2018-03-20T08:50:01.222Z,15.67
2018-03-20T08:52:28.925Z,17.00
2018-03-20T08:54:56.479Z,16.33
2018-03-20T08:57:24.105Z,16.87
2018-03-20T08:59:51.748Z,18.80
2018-03-20T09:02:19.528Z,18.10
2018-03-20T09:04:47.355Z,17.80
2018-03-20T09:07:15.262Z,17.43
2018-03-20T09:09:43.044Z,18.00
2018-03-20T09:12:10.699Z,18.70
2018-03-20T09:14:38.466Z,19.00
2018-03-20T09:17:06.091Z,18.80
2018-03-20T09:19:33.856Z,18.50
2018-03-20T09:22:01.410Z,19.10
2018-03-20T09:24:29.146Z,19.50
2018-03-20T09:26:56.706Z,17.27
2018-03-20T09:29:24.817Z,18.73
2018-03-20T09:31:52.530Z,20.20
2018-03-20T09:34:20.510Z,19.60
2018-03-20T09:36:48.407Z,20.83
2018-03-20T09:39:16.300Z,18.83
2018-03-20T09:41:44.120Z,19.33
2018-03-20T09:44:12.117Z,19.90
2018-03-20T09:46:40.532Z,19.40
2018-03-20T09:49:09.229Z,19.43
2018-03-20T09:51:36.823Z,16.70
2018-03-20T09:54:05.166Z,18.90
2018-03-20T09:56:32.910Z,19.40
2018-03-20T09:59:00.536Z,20.97
2018-03-20T10:01:28.245Z,22.50
2018-03-20T10:03:56.077Z,20.40
2018-03-20T10:06:23.889Z,16.43
2018-03-20T10:08:51.572Z,16.50
2018-03-20T10:11:19.132Z,15.70
2018-03-20T10:13:47.212Z,16.92
2018-03-20T10:16:14.793Z,19.50
2018-03-20T10:18:42.356Z,19.87
2018-03-20T10:21:10.060Z,18.37
2018-03-20T10:23:37.776Z,17.50
2018-03-20T10:26:05.541Z,15.37
2018-03-20T10:28:33.143Z,14.90
2018-03-20T10:31:00.889Z,20.87
2018-03-20T10:33:28.661Z,27.47
2018-03-20T10:35:57.432Z,30.50
2018-03-20T10:38:25.801Z,18.87
2018-03-20T10:40:53.396Z,20.13
2018-03-20T10:43:21.165Z,18.60
2018-03-20T10:45:48.773Z,19.70
2018-03-20T10:48:16.360Z,16.83
2018-03-20T10:50:44.021Z,17.93
2018-03-20T10:53:12.631Z,18.20
2018-03-20T10:55:40.455Z,17.77
2018-03-20T10:58:08.106Z,16.90
2018-03-20T11:03:41.864Z,15.97
2018-03-20T11:06:09.536Z,14.20
2018-03-20T11:08:37.337Z,14.40
2018-03-20T11:11:04.901Z,11.80
2018-03-20T11:13:32.721Z,11.17
2018-03-20T11:16:00.390Z,12.20
2018-03-20T11:18:27.945Z,12.73
2018-03-20T11:20:55.637Z,13.27
2018-03-20T11:23:23.190Z,12.93
2018-03-20T11:25:50.752Z,13.10
2018-03-20T11:28:18.427Z,12.13
2018-03-20T11:30:46.150Z,12.30
2018-03-20T11:33:13.880Z,12.18
2018-03-20T11:35:41.707Z,10.07
2018-03-20T11:38:09.576Z,9.68
2018-03-20T11:40:37.120Z,10.83
2018-03-20T11:43:04.874Z,12.00
2018-03-20T11:45:32.540Z,11.30
2018-03-20T11:48:00.320Z,10.30
2018-03-20T11:50:28.695Z,10.23
2018-03-20T11:52:56.246Z,10.17
2018-03-20T11:55:23.826Z,9.77
2018-03-20T11:57:51.490Z,11.40
2018-03-20T12:00:19.221Z,10.93
2018-03-20T12:02:46.942Z,9.43
2018-03-20T12:05:14.726Z,9.93
2018-03-20T12:07:53.301Z,10.07
2018-03-20T12:10:21.077Z,9.33
2018-03-20T12:12:49.532Z,10.50
2018-03-20T12:15:17.241Z,10.50
2018-03-20T12:17:44.897Z,10.03
2018-03-20T12:20:12.524Z,10.77
2018-03-20T12:22:40.541Z,9.53
2018-03-20T12:25:08.186Z,9.83
2018-03-20T12:27:35.861Z,9.10
2018-03-20T12:30:03.649Z,9.33
2018-03-20T12:32:31.951Z,10.23
2018-03-20T12:34:59.786Z,8.00
2018-03-20T12:37:27.500Z,7.00
2018-03-20T12:39:55.059Z,8.53
2018-03-20T12:42:22.789Z,9.98
2018-03-20T12:44:51.095Z,8.10
2018-03-20T12:47:18.637Z,7.30
2018-03-20T12:49:46.435Z,8.17
2018-03-20T12:52:14.266Z,7.47
2018-03-20T12:54:42.179Z,7.57
2018-03-20T12:57:09.857Z,7.90
2018-03-20T12:59:37.601Z,6.43
2018-03-20T13:02:05.157Z,6.60
2018-03-20T13:04:33.107Z,6.72
2018-03-20T13:07:00.782Z,6.40
2018-03-20T13:09:28.365Z,7.30
2018-03-20T13:11:56.455Z,6.77
2018-03-20T13:14:24.421Z,6.90
2018-03-20T13:16:52.929Z,10.67
2018-03-20T13:19:20.594Z,7.30
2018-03-20T13:21:48.449Z,6.70
2018-03-20T13:24:16.201Z,7.13
2018-03-20T13:26:43.812Z,6.90
2018-03-20T13:29:11.575Z,7.57
2018-03-20T13:31:39.230Z,6.97
2018-03-20T13:34:07.070Z,15.07
2018-03-20T13:36:34.751Z,10.53
2018-03-20T13:39:02.306Z,9.05
2018-03-20T13:41:29.869Z,10.60
2018-03-20T13:43:57.540Z,8.27
2018-03-20T13:46:25.114Z,6.77
2018-03-20T13:48:53.885Z,7.20
2018-03-20T13:51:21.740Z,36.22
2018-03-20T13:53:49.521Z,10.70
2018-03-20T13:56:17.420Z,9.30
2018-03-20T13:58:45.386Z,8.10
2018-03-20T14:01:13.120Z,7.00
2018-03-20T14:03:40.845Z,7.12
2018-03-20T14:06:09.019Z,10.30
2018-03-20T14:08:36.598Z,12.00
2018-03-20T14:11:04.221Z,9.73
2018-03-20T14:13:31.851Z,9.07
2018-03-20T14:15:59.614Z,8.30
2018-03-20T14:18:27.216Z,8.83
2018-03-20T14:20:54.955Z,12.90
2018-03-20T14:23:22.578Z,9.75
2018-03-20T14:25:50.182Z,8.60
2018-03-20T14:28:17.746Z,9.23
2018-03-20T14:30:45.776Z,9.07
2018-03-20T14:33:13.426Z,9.93
2018-03-20T14:35:40.957Z,10.27
2018-03-20T14:38:08.600Z,8.90
2018-03-20T14:40:36.229Z,9.30
2018-03-20T14:43:03.790Z,8.97
2018-03-20T14:45:31.393Z,9.10
2018-03-20T14:47:58.980Z,10.50
2018-03-20T14:50:27.180Z,8.50
2018-03-20T14:52:55.180Z,8.95
2018-03-20T14:55:22.773Z,9.07
2018-03-20T14:57:50.331Z,9.60
2018-03-20T15:00:18.147Z,8.90
2018-03-20T15:02:45.770Z,9.50
2018-03-20T15:05:13.491Z,9.93
2018-03-20T15:07:41.101Z,9.57
2018-03-20T15:10:09.381Z,9.30
2018-03-20T15:12:37.770Z,9.50
2018-03-20T15:15:05.655Z,9.70
2018-03-20T15:17:33.404Z,9.07
2018-03-20T15:20:00.941Z,9.43
2018-03-20T15:22:28.546Z,9.73
2018-03-20T15:24:56.403Z,8.75
2018-03-20T15:27:25.115Z,8.47
2018-03-20T15:29:53.426Z,8.98
2018-03-20T15:32:21.452Z,9.43
2018-03-20T15:34:48.990Z,9.17
2018-03-20T15:37:16.580Z,9.50
2018-03-20T15:39:44.125Z,9.27
2018-03-20T15:42:12.121Z,8.90
2018-03-20T15:44:39.745Z,9.57
2018-03-20T15:47:07.332Z,10.83
2018-03-20T15:49:34.907Z,9.70
2018-03-20T15:52:02.561Z,9.00
2018-03-20T15:54:30.200Z,14.03
2018-03-20T15:56:57.735Z,17.40
2018-03-20T15:59:25.439Z,15.43
2018-03-20T16:01:52.995Z,12.67
2018-03-20T16:04:20.621Z,15.13
2018-03-20T16:06:48.515Z,19.07
2018-03-20T16:09:16.231Z,16.50
2018-03-20T16:11:43.730Z,11.83
2018-03-20T16:14:12.001Z,11.70
2018-03-20T16:16:39.804Z,10.97
2018-03-20T16:19:07.600Z,9.97
2018-03-20T16:21:35.275Z,13.30
2018-03-20T16:24:03.571Z,11.73
2018-03-20T16:26:31.352Z,12.73
2018-03-20T16:28:59.765Z,14.50
2018-03-20T16:31:27.637Z,11.73
2018-03-20T16:33:55.308Z,14.03
2018-03-20T16:36:23.330Z,13.07
2018-03-20T16:38:50.912Z,16.63
2018-03-20T16:41:18.669Z,17.03
2018-03-20T16:43:46.376Z,15.67
2018-03-20T16:46:13.981Z,15.00
2018-03-20T16:48:41.641Z,13.93
2018-03-20T16:51:09.197Z,16.73
2018-03-20T16:53:39.002Z,18.57
2018-03-20T16:56:06.578Z,34.73
2018-03-20T16:58:34.482Z,14.90
2018-03-20T17:01:02.213Z,12.00
2018-03-20T17:03:29.981Z,12.60
2018-03-20T17:05:57.731Z,14.00
2018-03-20T17:08:25.582Z,13.40
2018-03-20T17:10:53.450Z,12.75
2018-03-20T17:13:21.341Z,13.15
2018-03-20T17:15:49.271Z,12.98
2018-03-20T17:18:17.132Z,13.07
2018-03-20T17:20:44.812Z,13.23
2018-03-20T17:23:12.485Z,12.70
2018-03-20T17:25:40.055Z,13.30
2018-03-20T17:28:07.673Z,15.90
2018-03-20T17:30:35.264Z,15.00
2018-03-20T17:33:02.964Z,12.73
2018-03-20T17:35:36.456Z,12.37
2018-03-20T17:38:04.096Z,11.10
2018-03-20T17:40:32.669Z,12.00
2018-03-20T17:43:00.548Z,12.70
2018-03-20T17:45:28.290Z,13.30
2018-03-20T17:47:56.081Z,13.43
2018-03-20T17:50:24.039Z,14.77
2018-03-20T17:52:51.702Z,13.80
2018-03-20T17:55:19.354Z,12.77
2018-03-20T17:57:46.932Z,12.60
2018-03-20T18:00:15.482Z,12.90
2018-03-20T18:02:43.257Z,12.97
2018-03-20T18:05:11.057Z,13.20
2018-03-20T18:07:38.673Z,12.77
2018-03-20T18:10:06.254Z,12.95
2018-03-20T18:12:33.886Z,11.60
2018-03-20T18:15:01.558Z,12.97
2018-03-20T18:17:29.262Z,12.53
2018-03-20T18:19:56.841Z,13.30
2018-03-20T18:22:24.399Z,13.50
2018-03-20T18:24:52.081Z,14.57
2018-03-20T18:27:20.640Z,15.07
2018-03-20T18:29:48.617Z,15.07
2018-03-20T18:32:16.481Z,14.37
2018-03-20T18:34:44.130Z,14.80
2018-03-20T18:37:11.804Z,14.83
2018-03-20T18:39:39.542Z,14.00
2018-03-20T18:42:07.290Z,19.63
2018-03-20T18:44:35.061Z,17.33
2018-03-20T18:47:03.047Z,15.50
2018-03-20T18:49:30.596Z,16.85
2018-03-20T18:51:59.330Z,16.20
2018-03-20T18:54:27.074Z,21.40
2018-03-20T18:56:55.369Z,22.20
2018-03-20T18:59:23.227Z,16.00
2018-03-20T19:01:50.782Z,17.70
2018-03-20T19:04:18.536Z,17.13
2018-03-20T19:06:46.172Z,16.15
2018-03-20T19:09:14.285Z,18.00
2018-03-20T19:11:41.895Z,17.50
2018-03-20T19:14:09.720Z,15.60
2018-03-20T19:16:37.489Z,16.80
2018-03-20T19:19:05.146Z,17.37
2018-03-20T19:21:32.794Z,20.77
2018-03-20T19:24:00.695Z,18.20
2018-03-20T19:26:28.412Z,19.60
2018-03-20T19:28:56.172Z,17.20
2018-03-20T19:31:23.942Z,23.43
2018-03-20T19:33:51.780Z,17.87
2018-03-20T19:36:19.476Z,18.17
2018-03-20T19:38:47.320Z,18.23
2018-03-20T19:41:15.061Z,18.80
2018-03-20T19:43:42.793Z,17.15
2018-03-20T19:46:10.597Z,17.53
2018-03-20T19:48:38.385Z,17.70
2018-03-20T19:51:06.060Z,19.10
2018-03-20T19:53:33.837Z,17.33
2018-03-20T19:56:01.676Z,20.07
2018-03-20T19:58:29.394Z,20.63
2018-03-20T20:00:57.328Z,22.30
2018-03-20T20:03:25.054Z,18.03
2018-03-20T20:05:52.954Z,18.37
2018-03-20T20:08:20.534Z,18.17
2018-03-20T20:10:48.485Z,19.00
2018-03-20T20:13:16.414Z,18.67
2018-03-20T20:15:44.233Z,18.95
2018-03-20T20:18:11.941Z,17.87
2018-03-20T20:20:39.560Z,17.57
2018-03-20T20:23:07.121Z,17.40
2018-03-20T20:25:35.360Z,16.45
2018-03-20T20:28:02.907Z,19.70
2018-03-20T20:30:30.730Z,19.93
2018-03-20T20:32:58.565Z,24.23
2018-03-20T20:35:26.336Z,24.00
2018-03-20T20:37:54.036Z,19.63
2018-03-20T20:40:21.756Z,19.00
2018-03-20T20:42:49.891Z,20.13
2018-03-20T20:45:18.140Z,21.07
2018-03-20T20:47:45.841Z,20.90
2018-03-20T20:50:13.556Z,19.35
2018-03-20T20:52:41.221Z,20.30
2018-03-20T20:55:09.045Z,22.55
2018-03-20T20:57:36.849Z,22.37
2018-03-20T21:00:04.788Z,21.17
2018-03-20T21:02:32.574Z,21.53
2018-03-20T21:05:00.216Z,29.53
2018-03-20T21:07:27.941Z,29.10
2018-03-20T21:09:55.520Z,26.60
2018-03-20T21:12:23.107Z,24.80
2018-03-20T21:14:51.470Z,22.85
2018-03-20T21:17:19.135Z,25.37
2018-03-20T21:19:46.756Z,21.17
2018-03-20T21:22:14.521Z,22.97
2018-03-20T21:24:42.389Z,22.90
2018-03-20T21:27:09.967Z,22.70
2018-03-20T21:29:38.111Z,22.43
2018-03-20T21:32:05.761Z,20.37
2018-03-20T21:34:33.360Z,22.00
2018-03-20T21:37:01.071Z,22.27
2018-03-20T21:39:29.058Z,21.77
2018-03-20T21:41:56.911Z,22.48
2018-03-20T21:44:24.459Z,21.67
2018-03-20T21:46:52.092Z,20.43
2018-03-20T21:49:19.665Z,20.37
2018-03-20T21:51:47.634Z,18.60
2018-03-20T21:54:15.307Z,20.67
2018-03-20T21:56:42.867Z,19.10
2018-03-20T21:59:10.495Z,18.53
2018-03-20T22:01:38.220Z,20.00
2018-03-20T22:04:05.750Z,17.80
2018-03-20T22:06:33.296Z,17.60
2018-03-20T22:09:00.952Z,20.75
2018-03-20T22:11:29.144Z,20.17
2018-03-20T22:13:57.576Z,17.17
2018-03-20T22:16:25.317Z,18.90
2018-03-20T22:18:53.046Z,18.77
2018-03-20T22:21:21.313Z,17.30
2018-03-20T22:23:49.589Z,18.27
2018-03-20T22:26:17.219Z,17.83
2018-03-20T22:28:45.179Z,17.00
2018-03-20T22:31:12.829Z,16.33
2018-03-20T22:33:40.482Z,18.10
2018-03-20T22:36:08.712Z,18.20
2018-03-20T22:38:36.546Z,17.90
2018-03-20T22:41:04.220Z,17.03
2018-03-20T22:43:31.879Z,17.40
2018-03-20T22:45:59.494Z,17.40
2018-03-20T22:48:28.039Z,18.05
2018-03-20T22:50:55.766Z,18.40
2018-03-20T22:53:23.401Z,17.23
2018-03-20T22:55:51.324Z,19.90
2018-03-20T22:58:19.165Z,19.37
2018-03-20T23:00:46.856Z,17.57
2018-03-20T23:03:14.481Z,16.23
2018-03-20T23:05:42.096Z,16.03
2018-03-20T23:08:09.635Z,16.73
2018-03-20T23:10:37.295Z,15.37
2018-03-20T23:13:04.898Z,12.90
2018-03-20T23:15:32.677Z,15.13
2018-03-20T23:18:00.415Z,14.50
2018-03-20T23:20:28.189Z,12.73
2018-03-20T23:22:55.921Z,13.30
2018-03-20T23:25:23.780Z,12.17
2018-03-20T23:27:51.731Z,14.33
2018-03-20T23:30:19.284Z,13.23
2018-03-20T23:32:46.919Z,12.00
2018-03-20T23:35:14.596Z,13.52
2018-03-20T23:37:42.394Z,12.60
2018-03-20T23:40:09.982Z,12.77
2018-03-20T23:42:37.696Z,14.10
2018-03-20T23:45:05.500Z,14.63
2018-03-20T23:47:34.239Z,13.20
2018-03-20T23:50:01.796Z,12.87
2018-03-20T23:52:29.510Z,13.10
2018-03-20T23:54:57.211Z,11.83
2018-03-20T23:57:24.814Z,12.70
2018-03-20T23:59:52.792Z,12.53
